createdAt,value
2023-05-01T00:01:50.419Z,4.70
2023-05-01T00:04:17.347Z,4.20
2023-05-01T00:06:44.355Z,4.60
2023-05-01T00:09:11.584Z,4.50
2023-05-01T00:11:38.493Z,5.17
2023-05-01T00:14:05.451Z,4.10
2023-05-01T00:16:32.300Z,4.00
2023-05-01T00:18:59.475Z,4.07
2023-05-01T00:21:28.285Z,4.37
2023-05-01T00:23:55.767Z,4.03
2023-05-01T00:26:22.781Z,3.93
2023-05-01T00:28:51.854Z,4.80
2023-05-01T00:31:18.937Z,4.57
2023-05-01T00:33:46.391Z,4.70
2023-05-01T00:36:13.393Z,4.50
2023-05-01T00:38:40.507Z,4.23
2023-05-01T00:41:07.318Z,5.00
2023-05-01T00:43:34.151Z,4.20
2023-05-01T00:46:01.693Z,4.30
2023-05-01T00:48:28.530Z,4.50
2023-05-01T00:50:56.408Z,5.00
2023-05-01T00:53:26.285Z,4.13
2023-05-01T00:55:56.617Z,4.70
2023-05-01T00:58:23.627Z,4.17
2023-05-01T01:00:52.295Z,3.90
2023-05-01T01:03:19.633Z,4.47
2023-05-01T01:05:54.722Z,4.27
2023-05-01T01:08:33.136Z,5.40
2023-05-01T01:11:23.208Z,4.93
2023-05-01T01:14:00.231Z,4.80
2023-05-01T01:16:32.539Z,5.10
2023-05-01T01:19:06.075Z,5.27
2023-05-01T01:21:38.214Z,5.10
2023-05-01T01:24:17.071Z,5.17
2023-05-01T01:27:10.507Z,6.30
2023-05-01T01:30:03.109Z,5.27
2023-05-01T01:32:45.625Z,5.07
2023-05-01T01:35:19.492Z,5.20
2023-05-01T01:37:57.240Z,5.67
2023-05-01T01:40:29.716Z,5.20
2023-05-01T01:43:02.585Z,5.37
2023-05-01T01:45:41.671Z,5.17
2023-05-01T01:48:13.221Z,4.60
2023-05-01T01:50:41.757Z,4.70
2023-05-01T01:53:11.768Z,5.17
2023-05-01T01:55:40.535Z,5.30
2023-05-01T01:58:10.624Z,5.90
2023-05-01T02:00:39.339Z,4.93
2023-05-01T02:03:06.717Z,5.57
2023-05-01T02:05:35.388Z,6.10
2023-05-01T02:08:04.242Z,5.30
2023-05-01T02:10:32.772Z,5.27
2023-05-01T02:13:01.859Z,4.93
2023-05-01T02:15:30.522Z,5.97
2023-05-01T02:17:58.345Z,5.33
2023-05-01T02:20:25.369Z,5.57
2023-05-01T02:22:53.506Z,5.10
2023-05-01T02:25:20.766Z,5.03
2023-05-01T02:27:52.996Z,5.10
2023-05-01T02:30:20.038Z,5.63
2023-05-01T02:32:46.931Z,5.43
2023-05-01T02:35:13.906Z,6.27
2023-05-01T02:37:40.960Z,5.13
2023-05-01T02:40:08.402Z,5.73
2023-05-01T02:42:35.878Z,5.20
2023-05-01T02:45:07.210Z,4.80
2023-05-01T02:47:38.286Z,5.60
2023-05-01T02:50:07.924Z,4.70
2023-05-01T02:52:36.685Z,4.60
2023-05-01T02:55:03.889Z,4.97
2023-05-01T02:57:33.246Z,5.07
2023-05-01T03:00:00.180Z,5.00
2023-05-01T04:00:41.625Z,5.03
2023-05-01T04:03:08.524Z,5.00
2023-05-01T04:05:36.004Z,5.00
2023-05-01T04:08:04.389Z,5.20
2023-05-01T04:10:31.251Z,5.00
2023-05-01T04:12:58.019Z,4.70
2023-05-01T04:15:24.921Z,5.10
2023-05-01T04:17:52.791Z,4.40
2023-05-01T04:20:20.362Z,5.60
2023-05-01T04:22:47.191Z,4.93
2023-05-01T04:25:14.045Z,5.10
2023-05-01T04:27:40.821Z,5.20
2023-05-01T04:30:08.419Z,4.93
2023-05-01T04:32:35.531Z,5.17
2023-05-01T04:35:02.295Z,4.87
2023-05-01T04:37:29.038Z,4.40
2023-05-01T04:39:56.202Z,3.83
2023-05-01T04:42:23.394Z,4.40
2023-05-01T04:44:50.201Z,5.10
2023-05-01T04:47:17.031Z,4.40
2023-05-01T04:49:43.812Z,4.73
2023-05-01T04:52:10.804Z,5.13
2023-05-01T04:54:37.558Z,5.20
2023-05-01T04:57:04.398Z,5.20
2023-05-01T04:59:31.198Z,5.10
2023-05-01T05:01:58.120Z,5.37
2023-05-01T05:04:25.175Z,4.33
2023-05-01T05:06:51.933Z,4.67
2023-05-01T05:09:20.191Z,5.37
2023-05-01T05:11:47.376Z,4.70
2023-05-01T05:14:14.139Z,4.57
2023-05-01T05:16:41.069Z,4.80
2023-05-01T05:19:07.913Z,5.00
2023-05-01T05:21:35.972Z,4.60
2023-05-01T05:24:02.876Z,5.00
2023-05-01T05:26:29.611Z,4.93
2023-05-01T05:28:56.711Z,4.70
2023-05-01T05:31:23.696Z,5.03
2023-05-01T05:33:50.530Z,5.20
2023-05-01T05:36:17.378Z,5.40
2023-05-01T05:38:44.266Z,5.73
2023-05-01T05:41:11.565Z,4.70
2023-05-01T05:43:38.482Z,5.20
2023-05-01T05:46:05.385Z,7.33
2023-05-01T05:48:32.212Z,16.10
2023-05-01T05:50:59.109Z,9.20
2023-05-01T05:53:26.252Z,8.00
2023-05-01T05:55:53.416Z,6.80
2023-05-01T05:58:20.368Z,5.73
2023-05-01T06:00:48.415Z,4.60
2023-05-01T06:03:16.279Z,4.83
2023-05-01T06:05:43.846Z,5.20
2023-05-01T06:08:12.432Z,4.80
2023-05-01T06:10:43.694Z,5.03
2023-05-01T06:13:14.047Z,4.50
2023-05-01T06:15:41.863Z,5.13
2023-05-01T06:18:09.297Z,4.77
2023-05-01T06:20:36.978Z,4.77
2023-05-01T06:23:03.870Z,4.40
2023-05-01T06:25:31.067Z,4.30
2023-05-01T06:27:58.010Z,4.37
2023-05-01T06:30:24.834Z,4.00
2023-05-01T06:32:51.619Z,4.00
2023-05-01T06:35:19.208Z,4.00
2023-05-01T06:37:46.265Z,4.17
2023-05-01T06:40:13.603Z,4.10
2023-05-01T06:42:41.290Z,4.80
2023-05-01T06:45:09.229Z,4.87
2023-05-01T06:47:36.472Z,5.77
2023-05-01T06:50:05.661Z,6.03
2023-05-01T06:52:33.023Z,4.73
2023-05-01T06:55:00.408Z,5.57
2023-05-01T06:57:27.458Z,5.60
2023-05-01T06:59:55.896Z,5.50
2023-05-01T07:02:23.248Z,5.63
2023-05-01T07:04:50.146Z,5.10
2023-05-01T07:07:16.986Z,5.50
2023-05-01T07:09:44.019Z,6.50
2023-05-01T07:12:10.847Z,6.63
2023-05-01T07:14:37.811Z,5.90
2023-05-01T07:17:04.741Z,7.20
2023-05-01T07:19:31.710Z,6.30
2023-05-01T07:21:58.560Z,6.10
2023-05-01T07:24:25.651Z,5.70
2023-05-01T07:26:56.593Z,5.60
2023-05-01T07:29:23.838Z,6.33
2023-05-01T07:31:51.676Z,6.00
2023-05-01T07:34:19.694Z,6.40
2023-05-01T07:36:46.767Z,5.70
2023-05-01T07:39:14.879Z,5.63
2023-05-01T07:41:41.675Z,5.97
2023-05-01T07:44:09.119Z,7.53
2023-05-01T07:46:36.982Z,5.90
2023-05-01T07:49:04.358Z,5.67
2023-05-01T07:51:31.700Z,5.70
2023-05-01T07:53:59.018Z,6.23
2023-05-01T07:56:25.796Z,5.83
2023-05-01T07:58:52.532Z,5.30
2023-05-01T08:01:19.617Z,5.13
2023-05-01T08:03:48.071Z,5.13
2023-05-01T08:06:16.503Z,5.53
2023-05-01T08:08:43.399Z,4.53
2023-05-01T08:11:10.300Z,5.37
2023-05-01T08:13:37.042Z,5.20
2023-05-01T08:16:04.665Z,3.67
2023-05-01T08:18:31.582Z,4.77
2023-05-01T08:20:58.459Z,4.60
2023-05-01T08:23:25.435Z,4.30
2023-05-01T08:25:52.620Z,4.97
2023-05-01T08:28:21.376Z,4.40
2023-05-01T08:30:49.439Z,4.27
2023-05-01T08:33:16.617Z,4.27
2023-05-01T08:35:43.650Z,4.93
2023-05-01T08:38:11.871Z,4.53
2023-05-01T08:40:39.159Z,5.00
2023-05-01T08:43:06.016Z,5.27
2023-05-01T08:45:36.206Z,4.13
2023-05-01T08:48:06.487Z,4.10
2023-05-01T08:50:36.926Z,3.83
2023-05-01T08:53:04.848Z,4.40
2023-05-01T08:55:33.435Z,3.23
2023-05-01T08:58:01.328Z,3.97
2023-05-01T09:00:29.098Z,3.80
2023-05-01T09:03:00.219Z,3.30
2023-05-01T09:05:28.235Z,4.40
2023-05-01T09:07:56.191Z,4.30
2023-05-01T09:10:24.538Z,3.43
2023-05-01T09:12:57.687Z,4.70
2023-05-01T09:15:27.106Z,4.20
2023-05-01T09:17:54.755Z,3.87
2023-05-01T09:20:22.832Z,3.60
2023-05-01T09:22:50.227Z,3.73
2023-05-01T09:25:19.329Z,3.53
2023-05-01T09:27:46.391Z,3.67
2023-05-01T09:30:32.969Z,4.00
2023-05-01T09:33:08.988Z,3.53
2023-05-01T09:35:53.642Z,3.60
2023-05-01T09:38:22.595Z,4.27
2023-05-01T09:40:50.405Z,4.47
2023-05-01T09:43:26.772Z,3.53
2023-05-01T09:46:09.730Z,3.90
2023-05-01T09:48:37.601Z,3.30
2023-05-01T09:51:22.282Z,3.30
2023-05-01T09:53:49.764Z,3.80
2023-05-01T09:56:17.465Z,3.30
2023-05-01T09:58:44.741Z,3.53
2023-05-01T10:01:11.707Z,3.80
2023-05-01T10:03:38.789Z,3.43
2023-05-01T10:06:05.914Z,3.73
2023-05-01T10:08:52.431Z,3.67
2023-05-01T10:11:19.333Z,3.47
2023-05-01T10:13:46.561Z,3.77
2023-05-01T10:16:30.360Z,3.30
2023-05-01T10:18:58.281Z,3.93
2023-05-01T10:21:25.591Z,3.60
2023-05-01T10:23:53.281Z,3.00
2023-05-01T10:26:23.496Z,2.83
2023-05-01T10:28:51.883Z,3.73
2023-05-01T10:31:18.777Z,3.17
2023-05-01T10:33:47.150Z,3.00
2023-05-01T10:36:20.742Z,3.77
2023-05-01T10:38:48.932Z,3.70
2023-05-01T10:41:16.961Z,4.27
2023-05-01T10:43:44.295Z,3.30
2023-05-01T10:46:27.369Z,3.00
2023-05-01T10:48:54.625Z,4.20
2023-05-01T10:51:26.510Z,3.67
2023-05-01T10:54:24.554Z,3.50
2023-05-01T10:56:51.883Z,3.87
2023-05-01T10:59:18.765Z,4.10
2023-05-01T11:01:51.698Z,4.27
2023-05-01T11:04:22.131Z,4.47
2023-05-01T11:07:05.650Z,4.13
2023-05-01T11:09:44.845Z,4.20
2023-05-01T11:12:14.463Z,4.40
2023-05-01T11:14:57.556Z,4.37
2023-05-01T11:17:40.110Z,4.20
2023-05-01T11:20:08.912Z,4.20
2023-05-01T11:22:37.302Z,4.37
2023-05-01T11:25:17.270Z,4.10
2023-05-01T11:27:54.965Z,4.00
2023-05-01T11:30:22.830Z,4.57
2023-05-01T11:32:51.194Z,3.83
2023-05-01T11:35:20.450Z,4.47
2023-05-01T11:37:48.228Z,5.10
2023-05-01T11:40:27.079Z,3.93
2023-05-01T11:43:06.413Z,4.60
2023-05-01T11:45:34.712Z,4.43
2023-05-01T11:48:04.489Z,4.70
2023-05-01T11:50:33.256Z,5.07
2023-05-01T11:53:00.436Z,4.03
2023-05-01T11:55:36.123Z,4.37
2023-05-01T11:58:04.989Z,4.50
2023-05-01T12:00:37.034Z,5.20
2023-05-01T12:03:06.687Z,4.40
2023-05-01T12:05:37.328Z,4.07
2023-05-01T12:08:20.639Z,4.67
2023-05-01T12:10:50.716Z,4.57
2023-05-01T12:13:18.022Z,4.63
2023-05-01T12:15:47.336Z,4.40
2023-05-01T12:18:16.057Z,4.10
2023-05-01T12:20:58.748Z,4.90
2023-05-01T12:23:35.937Z,4.40
2023-05-01T12:26:03.392Z,4.47
2023-05-01T12:28:35.174Z,4.57
2023-05-01T12:31:05.500Z,4.00
2023-05-01T12:33:35.521Z,4.33
2023-05-01T12:36:11.829Z,4.90
2023-05-01T12:38:38.989Z,4.73
2023-05-01T12:41:10.847Z,5.40
2023-05-01T12:43:38.506Z,5.30
2023-05-01T12:46:06.753Z,5.10
2023-05-01T12:48:39.100Z,5.07
2023-05-01T12:51:06.372Z,5.23
2023-05-01T12:53:33.815Z,5.80
2023-05-01T12:56:01.564Z,5.00
2023-05-01T12:58:37.624Z,5.27
2023-05-01T13:01:05.092Z,5.30
2023-05-01T13:03:33.603Z,5.27
2023-05-01T13:06:03.253Z,6.00
2023-05-01T13:08:34.447Z,5.00
2023-05-01T13:11:09.513Z,5.23
2023-05-01T13:13:37.549Z,5.53
2023-05-01T13:16:09.838Z,7.57
2023-05-01T13:18:48.547Z,5.97
2023-05-01T13:21:19.302Z,5.60
2023-05-01T13:24:02.060Z,5.30
2023-05-01T13:26:37.989Z,6.50
2023-05-01T13:29:05.972Z,5.27
2023-05-01T13:31:32.910Z,5.13
2023-05-01T13:34:00.992Z,5.50
2023-05-01T13:36:33.252Z,5.50
2023-05-01T13:39:00.392Z,5.10
2023-05-01T13:41:27.904Z,5.17
2023-05-01T13:43:57.049Z,4.87
2023-05-01T13:46:26.104Z,4.77
2023-05-01T13:48:53.341Z,4.17
2023-05-01T13:51:23.470Z,4.03
2023-05-01T13:53:50.801Z,4.70
2023-05-01T13:56:17.749Z,4.17
2023-05-01T13:58:44.802Z,3.80
2023-05-01T14:01:20.843Z,3.93
2023-05-01T14:03:48.934Z,4.00
2023-05-01T14:06:18.161Z,3.87
2023-05-01T14:08:48.059Z,4.73
2023-05-01T14:11:16.061Z,4.30
2023-05-01T14:13:44.546Z,3.80
2023-05-01T14:16:20.964Z,4.67
2023-05-01T14:18:54.662Z,3.30
2023-05-01T14:21:23.911Z,4.60
2023-05-01T14:23:53.144Z,4.80
2023-05-01T14:26:21.787Z,4.30
2023-05-01T14:28:49.556Z,4.93
2023-05-01T14:31:25.079Z,5.33
2023-05-01T14:33:58.842Z,6.50
2023-05-01T14:36:26.865Z,7.20
2023-05-01T14:38:56.508Z,8.00
2023-05-01T14:41:23.384Z,8.20
2023-05-01T14:43:53.207Z,8.27
2023-05-01T14:46:31.628Z,7.83
2023-05-01T14:49:00.276Z,8.50
2023-05-01T14:51:27.731Z,9.70
2023-05-01T14:53:54.725Z,9.97
2023-05-01T14:56:21.735Z,10.80
2023-05-01T14:58:49.802Z,11.47
2023-05-01T15:01:18.054Z,10.50
2023-05-01T15:03:46.373Z,7.30
2023-05-01T15:06:13.448Z,6.67
2023-05-01T15:08:40.284Z,6.23
2023-05-01T15:11:07.769Z,6.70
2023-05-01T15:13:34.736Z,5.83
2023-05-01T15:16:01.669Z,5.30
2023-05-01T15:18:28.766Z,6.30
2023-05-01T15:20:55.753Z,5.27
2023-05-01T15:23:23.963Z,4.40
2023-05-01T15:25:50.958Z,5.03
2023-05-01T15:28:18.039Z,3.40
2023-05-01T15:30:46.729Z,3.97
2023-05-01T15:33:16.952Z,4.77
2023-05-01T15:35:46.684Z,3.40
2023-05-01T15:38:13.466Z,4.63
2023-05-01T15:40:43.363Z,3.90
2023-05-01T15:43:10.183Z,5.60
2023-05-01T15:45:42.668Z,4.40
2023-05-01T15:48:11.154Z,4.20
2023-05-01T15:50:38.138Z,4.57
2023-05-01T15:53:04.965Z,3.87
2023-05-01T15:55:31.798Z,4.70
2023-05-01T15:57:58.753Z,4.23
2023-05-01T16:00:26.031Z,4.20
2023-05-01T16:02:53.056Z,3.57
2023-05-01T16:05:21.794Z,3.87
2023-05-01T16:07:55.102Z,4.23
2023-05-01T16:10:22.801Z,4.20
2023-05-01T16:12:51.082Z,3.67
2023-05-01T16:15:18.509Z,4.20
2023-05-01T16:17:46.638Z,4.63
2023-05-01T16:20:14.875Z,4.30
2023-05-01T16:22:43.309Z,4.30
2023-05-01T16:25:11.384Z,4.37
2023-05-01T16:27:44.239Z,4.43
2023-05-01T16:30:16.223Z,5.70
2023-05-01T16:32:44.711Z,5.00
2023-05-01T16:35:18.029Z,5.43
2023-05-01T16:37:45.209Z,4.97
2023-05-01T16:40:16.843Z,6.17
2023-05-01T16:42:54.224Z,5.40
2023-05-01T16:45:21.960Z,5.37
2023-05-01T16:47:48.895Z,4.83
2023-05-01T16:50:17.157Z,5.07
2023-05-01T16:52:44.099Z,4.27
2023-05-01T16:55:11.247Z,4.77
2023-05-01T16:57:38.171Z,4.50
2023-05-01T17:00:05.654Z,5.33
2023-05-01T17:02:33.539Z,5.27
2023-05-01T17:05:00.460Z,5.13
2023-05-01T17:07:27.331Z,6.10
2023-05-01T17:09:54.576Z,13.60
2023-05-01T17:12:21.383Z,8.33
2023-05-01T17:14:48.196Z,6.57
2023-05-01T17:17:17.604Z,6.27
2023-05-01T17:19:44.514Z,6.03
2023-05-01T17:22:11.449Z,5.93
2023-05-01T17:24:38.320Z,5.70
2023-05-01T17:27:05.163Z,6.50
2023-05-01T17:29:32.092Z,6.60
2023-05-01T17:31:58.907Z,6.20
2023-05-01T17:34:25.772Z,6.90
2023-05-01T17:36:52.882Z,6.50
2023-05-01T17:39:21.763Z,7.60
2023-05-01T17:41:49.677Z,8.17
2023-05-01T17:44:16.623Z,5.97
2023-05-01T17:46:44.515Z,6.33
2023-05-01T17:49:12.333Z,6.73
2023-05-01T17:51:39.175Z,5.50
2023-05-01T17:54:06.145Z,6.40
2023-05-01T17:56:33.084Z,5.27
2023-05-01T17:59:00.080Z,6.13
2023-05-01T18:01:27.585Z,6.47
2023-05-01T18:03:54.670Z,5.80
2023-05-01T18:06:21.662Z,6.77
2023-05-01T18:08:50.003Z,5.13
2023-05-01T18:11:17.146Z,4.23
2023-05-01T18:13:47.472Z,5.93
2023-05-01T18:16:15.840Z,5.17
2023-05-01T18:18:42.805Z,5.07
2023-05-01T18:21:10.721Z,4.53
2023-05-01T18:23:39.081Z,4.40
2023-05-01T18:26:06.107Z,4.80
2023-05-01T18:28:33.631Z,4.53
2023-05-01T18:31:00.565Z,4.37
2023-05-01T18:33:27.579Z,4.90
2023-05-01T18:35:54.445Z,4.70
2023-05-01T18:38:21.334Z,4.67
2023-05-01T18:40:48.653Z,4.70
2023-05-01T18:43:15.802Z,6.30
2023-05-01T18:45:42.598Z,6.87
2023-05-01T18:48:09.542Z,5.70
2023-05-01T18:50:36.439Z,7.10
2023-05-01T18:53:03.496Z,6.90
2023-05-01T18:55:30.469Z,6.40
2023-05-01T18:57:57.495Z,7.30
2023-05-01T19:00:25.996Z,7.00
2023-05-01T19:02:53.108Z,10.63
2023-05-01T19:05:20.296Z,8.63
2023-05-01T19:07:47.190Z,7.50
2023-05-01T19:10:14.503Z,7.37
2023-05-01T19:12:42.116Z,8.57
2023-05-01T19:15:09.864Z,6.50
2023-05-01T19:17:36.974Z,5.83
2023-05-01T19:20:04.636Z,6.73
2023-05-01T19:22:32.602Z,6.87
2023-05-01T19:25:00.284Z,7.30
2023-05-01T19:27:27.494Z,6.30
2023-05-01T19:29:54.672Z,5.77
2023-05-01T19:32:23.110Z,5.10
2023-05-01T19:34:51.478Z,5.37
2023-05-01T19:37:18.338Z,5.30
2023-05-01T19:39:45.205Z,5.50
2023-05-01T19:42:12.094Z,5.03
2023-05-01T19:44:38.876Z,5.10
2023-05-01T19:47:05.866Z,5.83
2023-05-01T19:49:32.787Z,4.13
2023-05-01T19:51:59.935Z,4.80
2023-05-01T19:54:26.784Z,4.37
2023-05-01T19:56:53.848Z,4.43
2023-05-01T19:59:21.752Z,4.50
2023-05-01T20:01:48.749Z,4.93
2023-05-01T20:04:15.901Z,4.47
2023-05-01T20:06:43.945Z,4.50
2023-05-01T20:09:10.933Z,4.50
2023-05-01T20:11:37.772Z,6.10
2023-05-01T20:14:05.067Z,5.27
2023-05-01T20:16:33.062Z,5.43
2023-05-01T20:18:59.922Z,5.57
2023-05-01T20:21:26.795Z,5.00
2023-05-01T20:23:54.527Z,5.57
2023-05-01T20:26:21.364Z,5.73
2023-05-01T20:28:49.936Z,5.87
2023-05-01T20:31:17.292Z,5.27
2023-05-01T20:33:44.480Z,6.83
2023-05-01T20:36:11.389Z,6.37
2023-05-01T20:38:47.306Z,6.00
2023-05-01T20:41:15.691Z,5.67
2023-05-01T20:43:42.840Z,5.43
2023-05-01T20:46:09.767Z,4.70
2023-05-01T20:48:36.655Z,4.80
2023-05-01T20:51:03.562Z,5.30
2023-05-01T20:53:31.259Z,5.30
2023-05-01T20:55:59.230Z,5.07
2023-05-01T20:58:26.093Z,4.80
2023-05-01T21:00:55.474Z,5.30
2023-05-01T21:03:22.411Z,5.53
2023-05-01T21:05:49.505Z,5.40
2023-05-01T21:08:18.931Z,7.67
2023-05-01T21:10:45.706Z,8.50
2023-05-01T21:13:12.556Z,8.60
2023-05-01T21:15:41.392Z,6.83
2023-05-01T21:18:12.313Z,5.93
2023-05-01T21:20:39.715Z,6.23
2023-05-01T21:23:06.831Z,6.23
2023-05-01T21:25:33.966Z,7.37
2023-05-01T21:28:03.309Z,6.10
2023-05-01T21:30:34.241Z,6.13
2023-05-01T21:33:02.485Z,6.97
2023-05-01T21:35:30.341Z,8.97
2023-05-01T21:37:59.020Z,7.53
2023-05-01T21:40:26.979Z,9.17
2023-05-01T21:42:55.041Z,8.40
2023-05-01T21:45:22.684Z,7.50
2023-05-01T21:47:51.266Z,6.60
2023-05-01T21:50:20.608Z,7.67
2023-05-01T21:52:49.623Z,6.97
2023-05-01T21:55:25.966Z,8.40
2023-05-01T21:57:53.574Z,8.03
2023-05-01T22:00:21.945Z,7.23
2023-05-01T22:02:51.319Z,6.83
2023-05-01T22:05:22.871Z,6.80
2023-05-01T22:07:52.752Z,7.07
2023-05-01T22:10:20.176Z,7.10
2023-05-01T22:12:49.290Z,7.10
2023-05-01T22:15:16.590Z,8.27
2023-05-01T22:17:44.200Z,8.07
2023-05-01T22:20:11.294Z,6.87
2023-05-01T22:22:39.804Z,7.70
2023-05-01T22:25:08.826Z,6.20
2023-05-01T22:27:36.491Z,6.63
2023-05-01T22:30:06.216Z,6.90
2023-05-01T22:32:33.663Z,8.07
2023-05-01T22:35:01.859Z,8.10
2023-05-01T22:37:28.619Z,6.83
2023-05-01T22:39:55.894Z,7.20
2023-05-01T22:42:23.258Z,6.73
2023-05-01T22:44:50.076Z,6.90
2023-05-01T22:47:17.594Z,7.13
2023-05-01T22:49:44.531Z,5.83
2023-05-01T22:52:11.535Z,5.80
2023-05-01T22:54:38.395Z,6.00
2023-05-01T22:57:05.310Z,5.80
2023-05-01T22:59:32.240Z,5.87
2023-05-01T23:02:03.091Z,5.63
2023-05-01T23:04:30.775Z,6.17
2023-05-01T23:06:58.488Z,6.90
2023-05-01T23:09:25.543Z,6.40
2023-05-01T23:11:52.294Z,5.73
2023-05-01T23:14:19.276Z,6.10
2023-05-01T23:16:46.123Z,6.73
2023-05-01T23:19:21.663Z,6.40
2023-05-01T23:21:50.020Z,6.43
2023-05-01T23:24:18.905Z,6.30
2023-05-01T23:26:46.224Z,6.13
2023-05-01T23:29:13.920Z,5.90
2023-05-01T23:31:48.731Z,4.57
2023-05-01T23:34:17.955Z,5.53
2023-05-01T23:36:46.499Z,4.77
2023-05-01T23:39:14.098Z,4.57
2023-05-01T23:41:41.730Z,5.07
2023-05-01T23:44:09.517Z,4.13
2023-05-01T23:46:37.157Z,4.77
2023-05-01T23:49:04.637Z,4.10
2023-05-01T23:51:31.942Z,4.70
2023-05-01T23:53:59.118Z,4.40
2023-05-01T23:56:26.081Z,4.47
2023-05-01T23:58:53.025Z,4.70
